Terminal Aerodrome Forecast
Issued by NWS Portland, OR

Home | Current Version | Previous Version | Text Only | Print | Product List | Glossary On
Versions: 1 2 3 4 5 6 7 8 9 10 11 12 13
000
FTUS46 KPQR 240532
TAFSLE
TAF
KSLE 240532Z 2406/2506 VRB03KT P6SM BKN250
     FM241500 00000KT 4SM BR BKN015
     FM241900 19004KT P6SM SCT020 BKN040
     FM250400 17003KT P6SM BKN040=

USA.gov is the U.S. government's official web portal to all federal, state and local government web resources and services.